Impacts METAR Board
IDs:

KIAH - Houston/Bush Intl, TX, US

Updated at: 1200 UTC 21 Jan 2020
Potential Impact None Slight Moderate High
Time 21/00Z 21/01Z 21/02Z 21/03Z 21/04Z 21/05Z 21/06Z 21/07Z 21/08Z 21/09Z 21/10Z 21/11Z 21/12Z
Temp54 54 48 48 47 43 42 42 40 40 39 38 38
Dewpt26 27 29 29 30 31 31 30 31 30 33 31 31
Altim30.48 30.48 30.48 30.49 30.48 30.49 30.51 30.51 30.49 30.49 30.49 30.49 30.50
VIS10 10 10 10 10 10 10 10 10 10 10 10 10
CIG-- -- -- -- -- -- -- -- -- -- -- -- --
CoverFEWFEWFEWFEWFEWFEWFEWFEWFEWFEWSCTFEWFEW
FltCatVFRVFRVFRVFRVFRVFRVFRVFRVFRVFRVFRVFRVFR
WX--------------------------
WDir406060701101000000000
WSpd6 7 7 8 6 5 0 0 0 0 0 0 0
WGst-- -- -- -- -- -- -- -- -- -- -- -- --
R08/26
XWnd 5 4 4 3 -2 -1 VRB VRB VRB VRB VRB VRB VRB
HWnd 4 6 6 8 6 5 VRB VRB VRB VRB VRB VRB VRB
R09/27
XWnd 5 4 4 3 -2 -1 VRB VRB VRB VRB VRB VRB VRB
HWnd 4 6 6 8 6 5 VRB VRB VRB VRB VRB VRB VRB
R15/33
XWnd 6 7 7 8 4 4 VRB VRB VRB VRB VRB VRB VRB
HWnd -2 -0 -0 1 4 3 VRB VRB VRB VRB VRB VRB VRB
Raw hourly METARs
KIAH 202353Z 04006KT 10SM FEW250 12/M03 A3048 RMK AO2 SLP321 FU DSNT NW T01221033 10167 20122 55001
KIAH 210053Z 06007KT 10SM FEW250 12/M03 A3048 RMK AO2 SLP323 FU DSNT NW T01221028
KIAH 210153Z 06007KT 10SM FEW250 09/M02 A3048 RMK AO2 SLP322 T00891017
KIAH 210253Z 07008KT 10SM FEW250 09/M02 A3049 RMK AO2 SLP324 T00891017 53002
KIAH 210353Z 11006KT 10SM FEW250 08/M01 A3048 RMK AO2 SLP323 T00831011
KIAH 210453Z 10005KT 10SM FEW250 06/M01 A3049 RMK AO2 SLP327 T00611006
KIAH 210553Z 00000KT 10SM FEW250 06/M01 A3051 RMK AO2 SLP332 T00561006 10128 20050 401670033 53008
KIAH 210653Z 00000KT 10SM FEW250 06/M01 A3051 RMK AO2 SLP332 T00561011
KIAH 210753Z 00000KT 10SM FEW250 04/M01 A3049 RMK AO2 SLP325 T00441006
KIAH 210853Z 00000KT 10SM FEW250 04/M01 A3049 RMK AO2 SLP324 T00441011 58008
KIAH 210953Z 00000KT 10SM SCT250 04/01 A3049 RMK AO2 SLP324 T00390006
KIAH 211053Z 00000KT 10SM FEW250 03/M01 A3049 RMK AO2 SLP325 T00331006
KIAH 211153Z 00000KT 10SM FEW250 03/M01 A3050 RMK AO2 SLP328 T00331006 10061 20028 53004



Page loaded:  12:14 UTC  |   04:14 AM Pacific  |   05:14 AM Mountain  |   06:14 AM Central  |   07:14 AM Eastern

 

ADVISORIES

FORECASTS

FORECASTS

OBSERVATIONS

USER TOOLS

ABOUT US